createdAt,value
2022-11-27T00:00:32.115Z,93.1
2022-11-27T00:01:35.591Z,93.1
2022-11-27T00:02:42.451Z,93.1
2022-11-27T00:03:47.326Z,93
2022-11-27T00:04:52.637Z,93
2022-11-27T00:05:56.896Z,93
2022-11-27T00:07:00.242Z,93
2022-11-27T00:08:03.715Z,92.9
2022-11-27T00:09:06.958Z,92.8
2022-11-27T00:10:10.390Z,92.7
2022-11-27T00:11:13.444Z,92.6
2022-11-27T00:12:16.495Z,92.6
2022-11-27T00:13:19.350Z,92.5
2022-11-27T00:14:22.445Z,92.5
2022-11-27T00:15:25.643Z,92.5
2022-11-27T00:16:29.896Z,92.6
2022-11-27T00:17:32.920Z,92.6
2022-11-27T00:18:36.435Z,92.6
2022-11-27T00:19:41.346Z,92.6
2022-11-27T00:20:44.732Z,92.6
2022-11-27T00:21:48.735Z,92.6
2022-11-27T00:22:51.781Z,92.6
2022-11-27T00:23:55.141Z,92.5
2022-11-27T00:24:58.297Z,92.5
2022-11-27T00:26:01.066Z,92.4
2022-11-27T00:27:04.152Z,92.4
2022-11-27T00:28:07.355Z,92.3
2022-11-27T00:29:10.715Z,92.3
2022-11-27T00:30:13.382Z,92.3
2022-11-27T00:31:17.022Z,92.3
2022-11-27T00:32:19.648Z,92.3
2022-11-27T00:33:23.107Z,92.2
2022-11-27T00:34:26.098Z,92.3
2022-11-27T00:35:28.952Z,92.2
2022-11-27T00:36:32.001Z,92.2
2022-11-27T00:37:35.769Z,92.2
2022-11-27T00:38:40.753Z,92.3
2022-11-27T00:39:43.886Z,92.3
2022-11-27T00:40:46.764Z,92.2
2022-11-27T00:41:50.741Z,92.3
2022-11-27T00:42:54.114Z,92.3
2022-11-27T00:43:56.895Z,92.3
2022-11-27T00:45:00.237Z,92.2
2022-11-27T00:46:03.640Z,92.1
2022-11-27T00:47:07.427Z,92.1
2022-11-27T00:48:11.068Z,92.1
2022-11-27T00:49:14.240Z,92.1
2022-11-27T00:50:17.065Z,92.1
2022-11-27T00:51:19.860Z,92.1
2022-11-27T00:52:22.113Z,92.1
2022-11-27T00:53:25.910Z,92.1
2022-11-27T00:54:29.062Z,92.1
2022-11-27T00:55:31.870Z,92.1
2022-11-27T00:56:34.637Z,92.2
2022-11-27T00:57:37.151Z,92.3
2022-11-27T00:58:39.718Z,92.2
2022-11-27T00:59:42.134Z,92.3
2022-11-27T01:00:45.282Z,92.3
2022-11-27T01:01:48.537Z,92.2
2022-11-27T01:02:51.570Z,92.1
2022-11-27T01:03:54.863Z,92.1
2022-11-27T01:04:58.003Z,92.1
2022-11-27T01:06:01.089Z,92.1
2022-11-27T01:07:04.542Z,92.1
2022-11-27T01:08:07.515Z,92
2022-11-27T01:09:10.681Z,92
2022-11-27T01:10:13.105Z,92.1
2022-11-27T01:11:15.592Z,92.1
2022-11-27T01:12:18.356Z,92.1
2022-11-27T01:13:21.782Z,92.1
2022-11-27T01:14:24.801Z,92.1
2022-11-27T01:15:27.219Z,92.1
2022-11-27T01:16:31.267Z,92.1
2022-11-27T01:17:34.239Z,92.1
2022-11-27T01:18:37.679Z,92.1
2022-11-27T01:19:40.452Z,92.1
2022-11-27T01:20:43.531Z,92.1
2022-11-27T01:21:46.649Z,92.1
2022-11-27T01:22:49.747Z,92
2022-11-27T01:23:52.863Z,92.1
2022-11-27T01:24:56.890Z,92.2
2022-11-27T01:26:00.112Z,92.4
2022-11-27T01:27:02.056Z,92.6
2022-11-27T01:28:05.041Z,92.6
2022-11-27T01:29:07.748Z,92.7
2022-11-27T01:30:11.077Z,92.7
2022-11-27T01:31:14.343Z,92.6
2022-11-27T01:32:17.084Z,92.6
2022-11-27T01:33:20.596Z,92.5
2022-11-27T01:34:23.436Z,92.5
2022-11-27T01:35:26.301Z,92.5
2022-11-27T01:36:29.653Z,92.5
2022-11-27T01:37:32.639Z,92.5
2022-11-27T01:38:35.142Z,92.5
2022-11-27T01:39:38.185Z,92.4
2022-11-27T01:40:42.257Z,92.3
2022-11-27T01:41:45.331Z,92.3
2022-11-27T01:42:48.109Z,92.3
2022-11-27T01:43:50.797Z,92.3
2022-11-27T01:44:53.930Z,92.3
2022-11-27T01:45:57.276Z,92.3
2022-11-27T01:47:01.132Z,92.3
2022-11-27T01:48:03.565Z,92.3
2022-11-27T01:49:06.616Z,92.3
2022-11-27T01:50:08.751Z,92.3
2022-11-27T01:51:11.516Z,92.3
2022-11-27T01:52:14.071Z,92.3
2022-11-27T01:53:17.491Z,92.2
2022-11-27T01:54:20.206Z,92.2
2022-11-27T01:55:23.854Z,92.1
2022-11-27T01:56:27.329Z,92.2
2022-11-27T01:57:30.744Z,92.3
2022-11-27T01:58:33.812Z,92.3
2022-11-27T01:59:36.943Z,92.3
2022-11-27T02:00:39.986Z,92.3
2022-11-27T02:01:43.024Z,92.3
2022-11-27T02:02:46.663Z,92.3
2022-11-27T02:03:50.221Z,92.4
2022-11-27T02:04:52.916Z,92.4
2022-11-27T02:05:56.319Z,92.5
2022-11-27T02:06:59.174Z,92.5
2022-11-27T02:08:02.812Z,92.6
2022-11-27T02:09:06.267Z,92.6
2022-11-27T02:10:09.625Z,92.7
2022-11-27T02:11:11.821Z,92.6
2022-11-27T02:12:15.630Z,92.7
2022-11-27T02:13:18.200Z,92.6
2022-11-27T02:14:21.332Z,92.5
2022-11-27T02:15:24.096Z,92.6
2022-11-27T02:16:26.608Z,92.5
2022-11-27T02:17:29.381Z,92.7
2022-11-27T02:18:31.319Z,92.8
2022-11-27T02:19:34.496Z,92.8
2022-11-27T02:20:36.734Z,92.9
2022-11-27T02:21:39.713Z,92.8
2022-11-27T02:22:42.403Z,92.8
2022-11-27T02:23:45.104Z,92.9
2022-11-27T02:24:48.179Z,92.9
2022-11-27T02:25:51.150Z,93
2022-11-27T02:26:54.782Z,92.9
2022-11-27T02:27:57.483Z,92.9
2022-11-27T02:29:00.137Z,92.9
2022-11-27T02:30:03.855Z,92.9
2022-11-27T02:31:06.841Z,92.9
2022-11-27T02:32:10.117Z,93.1
2022-11-27T02:33:12.985Z,93.2
2022-11-27T02:34:15.136Z,93.2
2022-11-27T02:35:18.216Z,93.2
2022-11-27T02:36:21.809Z,93.2
2022-11-27T02:37:24.878Z,93.2
2022-11-27T02:38:28.233Z,93.1
2022-11-27T02:39:32.027Z,93.1
2022-11-27T02:40:35.101Z,93
2022-11-27T02:41:38.150Z,93
2022-11-27T02:42:41.753Z,93
2022-11-27T02:43:45.893Z,92.9
2022-11-27T02:44:48.755Z,92.8
2022-11-27T02:45:51.450Z,92.7
2022-11-27T02:46:55.007Z,92.6
2022-11-27T02:47:57.965Z,92.7
2022-11-27T02:49:00.940Z,92.8
2022-11-27T02:50:04.111Z,92.7
2022-11-27T02:51:07.321Z,92.7
2022-11-27T02:52:09.848Z,92.6
2022-11-27T02:53:12.612Z,92.7
2022-11-27T02:54:15.388Z,92.7
2022-11-27T02:55:17.884Z,92.7
2022-11-27T02:56:21.581Z,92.7
2022-11-27T02:57:24.788Z,92.7
2022-11-27T02:58:28.934Z,92.8
2022-11-27T02:59:32.767Z,92.8
2022-11-27T03:00:35.198Z,92.7
2022-11-27T03:01:38.959Z,92.7
2022-11-27T03:02:42.138Z,92.7
2022-11-27T03:03:45.746Z,92.6
2022-11-27T03:04:48.231Z,92.6
2022-11-27T03:05:51.686Z,92.7
2022-11-27T03:06:54.573Z,92.7
2022-11-27T03:07:57.191Z,92.9
2022-11-27T03:09:00.824Z,93
2022-11-27T03:10:03.949Z,93.1
2022-11-27T03:11:06.927Z,93.1
2022-11-27T03:12:09.985Z,93.1
2022-11-27T03:13:13.151Z,93.1
2022-11-27T03:14:16.870Z,93.1
2022-11-27T03:15:21.338Z,93.2
2022-11-27T03:16:24.867Z,93.3
2022-11-27T03:17:28.139Z,93.3
2022-11-27T03:18:30.835Z,93.3
2022-11-27T03:19:33.812Z,93.3
2022-11-27T03:20:36.458Z,93.3
2022-11-27T03:21:39.601Z,93.3
2022-11-27T03:22:42.649Z,93.3
2022-11-27T03:23:45.782Z,93.2
2022-11-27T03:24:49.155Z,93.1
2022-11-27T03:25:51.926Z,93.1
2022-11-27T03:26:53.787Z,93.2
2022-11-27T03:27:56.921Z,93.1
2022-11-27T03:28:59.222Z,93.2
2022-11-27T03:30:03.381Z,93.2
2022-11-27T03:31:13.557Z,93.3
2022-11-27T03:32:17.545Z,93.3
2022-11-27T03:33:19.823Z,93.4
2022-11-27T03:34:22.622Z,93.4
2022-11-27T03:35:26.055Z,93.5
2022-11-27T03:36:28.826Z,93.5
2022-11-27T03:37:31.522Z,93.6
2022-11-27T03:38:34.657Z,93.6
2022-11-27T03:39:37.152Z,93.5
2022-11-27T03:40:39.843Z,93.5
2022-11-27T03:41:42.269Z,93.4
2022-11-27T03:42:45.240Z,93.4
2022-11-27T03:43:47.811Z,93.5
2022-11-27T03:44:50.588Z,93.5
2022-11-27T03:45:59.460Z,93.6
2022-11-27T03:47:03.741Z,93.6
2022-11-27T03:48:12.128Z,93.6
2022-11-27T03:49:15.428Z,93.6
2022-11-27T03:50:18.619Z,93.6
2022-11-27T03:51:21.103Z,93.6
2022-11-27T03:52:24.172Z,93.6
2022-11-27T03:53:26.967Z,93.6
2022-11-27T03:54:30.070Z,93.5
2022-11-27T03:55:33.184Z,93.5
2022-11-27T03:56:35.675Z,93.5
2022-11-27T03:57:38.245Z,93.5
2022-11-27T03:58:40.718Z,93.4
2022-11-27T03:59:44.044Z,93.4
2022-11-27T04:00:46.821Z,93.4
2022-11-27T04:01:51.135Z,93.4
2022-11-27T04:02:55.139Z,93.4
2022-11-27T04:03:58.292Z,93.4
2022-11-27T04:05:02.277Z,93.4
2022-11-27T04:06:05.715Z,93.4
2022-11-27T04:07:08.122Z,93.4
2022-11-27T04:08:10.606Z,93.4
2022-11-27T04:09:13.923Z,93.4
2022-11-27T04:10:16.435Z,93.4
2022-11-27T04:11:18.847Z,93.4
2022-11-27T04:12:22.120Z,93.3
2022-11-27T04:13:24.620Z,93.3
2022-11-27T04:14:26.835Z,93.3
2022-11-27T04:15:29.536Z,93.2
2022-11-27T04:16:31.978Z,93.2
2022-11-27T04:17:35.467Z,93.2
2022-11-27T04:18:39.621Z,93.2
2022-11-27T04:19:42.123Z,93.2
2022-11-27T04:20:44.986Z,93.1
2022-11-27T04:21:48.339Z,93.1
2022-11-27T04:22:50.954Z,93.2
2022-11-27T04:23:54.946Z,93.3
2022-11-27T04:24:58.005Z,93.3
2022-11-27T04:26:00.441Z,93.5
2022-11-27T04:27:03.797Z,93.5
2022-11-27T04:28:06.864Z,93.5
2022-11-27T04:29:10.115Z,93.4
2022-11-27T04:30:13.519Z,93.4
2022-11-27T04:31:16.723Z,93.4
2022-11-27T04:32:19.702Z,93.4
2022-11-27T04:33:22.754Z,93.4
2022-11-27T04:34:26.841Z,93.3
2022-11-27T04:35:29.129Z,93.3
2022-11-27T04:36:40.112Z,93.3
2022-11-27T04:37:43.211Z,93.2
2022-11-27T04:38:46.640Z,93.1
2022-11-27T04:39:49.131Z,93
2022-11-27T04:40:52.548Z,93
2022-11-27T04:41:55.391Z,92.9
2022-11-27T04:42:58.373Z,92.9
2022-11-27T04:44:01.181Z,92.8
2022-11-27T04:45:03.958Z,92.7
2022-11-27T04:46:07.084Z,92.7
2022-11-27T04:47:10.599Z,92.5
2022-11-27T04:48:13.305Z,92.6
2022-11-27T04:49:16.980Z,92.6
2022-11-27T04:50:20.922Z,92.6
2022-11-27T04:51:23.616Z,92.5
2022-11-27T04:52:27.697Z,92.4
2022-11-27T04:53:30.172Z,92.4
2022-11-27T04:54:32.614Z,92.3
2022-11-27T04:55:35.375Z,92.3
2022-11-27T04:56:38.062Z,92.3
2022-11-27T04:57:41.661Z,92.3
2022-11-27T04:58:44.155Z,92.1
2022-11-27T04:59:47.556Z,92.1
2022-11-27T05:00:50.668Z,92
2022-11-27T05:01:53.736Z,92
2022-11-27T05:02:56.865Z,91.9
2022-11-27T05:04:00.529Z,92
2022-11-27T05:05:09.818Z,92
2022-11-27T05:06:13.734Z,92.1
2022-11-27T05:07:16.877Z,92.2
2022-11-27T05:08:20.456Z,92.2
2022-11-27T05:09:22.931Z,92.1
2022-11-27T05:10:25.754Z,92.1
2022-11-27T05:11:28.457Z,92.1
2022-11-27T05:12:31.856Z,92.1
2022-11-27T05:13:34.648Z,92.1
2022-11-27T05:14:37.890Z,92.1
2022-11-27T05:15:41.073Z,92.1
2022-11-27T05:16:44.793Z,92.1
2022-11-27T05:17:47.487Z,92.2
2022-11-27T05:18:50.181Z,92.1
2022-11-27T05:19:52.610Z,92
2022-11-27T05:20:55.776Z,92
2022-11-27T05:21:59.714Z,92
2022-11-27T05:23:02.269Z,91.8
2022-11-27T05:24:05.709Z,91.7
2022-11-27T05:25:08.277Z,91.6
2022-11-27T05:26:10.802Z,91.5
2022-11-27T05:27:13.019Z,91.5
2022-11-27T05:28:15.793Z,91.5
2022-11-27T05:29:19.141Z,91.4
2022-11-27T05:30:21.516Z,91.5
2022-11-27T05:31:24.392Z,91.7
2022-11-27T05:32:27.942Z,91.6
2022-11-27T05:33:31.284Z,91.6
2022-11-27T05:34:34.048Z,91.5
2022-11-27T05:35:36.542Z,91.4
2022-11-27T05:36:39.777Z,91.4
2022-11-27T05:37:49.665Z,91.4
2022-11-27T05:38:53.397Z,91.4
2022-11-27T05:40:02.679Z,91.4
2022-11-27T05:41:06.573Z,91.3
2022-11-27T05:42:09.260Z,91.3
2022-11-27T05:43:11.403Z,91.2
2022-11-27T05:44:13.613Z,91.2
2022-11-27T05:45:16.662Z,91.2
2022-11-27T05:46:20.005Z,91.2
2022-11-27T05:47:23.240Z,91.1
2022-11-27T05:48:25.940Z,91.1
2022-11-27T05:49:29.026Z,91.2
2022-11-27T05:50:32.005Z,91.3
2022-11-27T05:51:35.614Z,91.3
2022-11-27T05:52:38.806Z,91.3
2022-11-27T05:53:43.279Z,91.3
2022-11-27T05:54:45.882Z,91.1
2022-11-27T05:55:49.036Z,91.2
2022-11-27T05:56:52.472Z,91.2
2022-11-27T05:57:55.442Z,91.3
2022-11-27T05:58:57.765Z,91.2
2022-11-27T06:00:00.612Z,91.2
2022-11-27T06:01:03.711Z,91.2
2022-11-27T06:02:06.790Z,91.2
2022-11-27T06:03:10.267Z,91.2
2022-11-27T06:04:13.739Z,91.2
2022-11-27T06:05:16.713Z,91
2022-11-27T06:06:19.766Z,91.1
2022-11-27T06:07:23.230Z,91.2
2022-11-27T06:08:27.031Z,91.3
2022-11-27T06:09:30.916Z,91.4
2022-11-27T06:10:33.804Z,91.6
2022-11-27T06:11:36.844Z,91.7
2022-11-27T06:12:39.788Z,91.7
2022-11-27T06:13:43.218Z,91.8
2022-11-27T06:14:45.982Z,91.9
2022-11-27T06:15:49.113Z,92.1
2022-11-27T06:16:51.903Z,92.2
2022-11-27T06:17:54.473Z,92.1
2022-11-27T06:18:56.965Z,92.2
2022-11-27T06:19:59.729Z,92.4
2022-11-27T06:21:03.067Z,92.4
2022-11-27T06:22:05.484Z,92.6
2022-11-27T06:23:08.183Z,92.7
2022-11-27T06:24:10.899Z,93.1
2022-11-27T06:25:14.496Z,93.4
2022-11-27T06:26:17.938Z,93.5
2022-11-27T06:27:20.507Z,93.5
2022-11-27T06:28:23.455Z,93.7
2022-11-27T06:29:26.224Z,93.7
2022-11-27T06:30:29.627Z,93.9
2022-11-27T06:31:33.732Z,93.9
2022-11-27T06:32:37.250Z,94
2022-11-27T06:33:39.841Z,94.2
2022-11-27T06:34:43.548Z,94.3
2022-11-27T06:35:45.975Z,94.4
2022-11-27T06:36:49.381Z,94.3
2022-11-27T06:37:52.511Z,94.4
2022-11-27T06:38:56.212Z,94.4
2022-11-27T06:39:59.840Z,94.6
2022-11-27T06:41:03.426Z,94.6
2022-11-27T06:42:06.309Z,94.7
2022-11-27T06:43:08.729Z,94.9
2022-11-27T06:44:12.244Z,94.9
2022-11-27T06:45:15.602Z,95
2022-11-27T06:46:18.484Z,94.9
2022-11-27T06:47:21.810Z,94.9
2022-11-27T06:48:24.297Z,94.8
2022-11-27T06:49:27.646Z,94.7
2022-11-27T06:50:30.699Z,94.7
2022-11-27T06:51:33.859Z,94.7
2022-11-27T06:52:41.607Z,94.6
2022-11-27T06:53:45.031Z,94.6
2022-11-27T06:54:47.616Z,94.6
2022-11-27T06:55:51.205Z,94.6
2022-11-27T06:56:54.792Z,94.6
2022-11-27T06:57:57.326Z,94.6
2022-11-27T06:58:59.819Z,94.5
2022-11-27T07:00:03.083Z,94.5
2022-11-27T07:01:05.619Z,94.5
2022-11-27T07:02:09.228Z,94.5
2022-11-27T07:03:12.459Z,94.5
2022-11-27T07:04:16.059Z,94.5
2022-11-27T07:05:18.563Z,94.4
2022-11-27T07:06:21.245Z,94.4
2022-11-27T07:07:24.335Z,94.4
2022-11-27T07:08:27.154Z,94.2
2022-11-27T07:09:30.501Z,94.2
2022-11-27T07:10:33.552Z,94.2
2022-11-27T07:11:36.904Z,94.2
2022-11-27T07:12:46.002Z,94.1
2022-11-27T07:13:48.925Z,94.1
2022-11-27T07:14:52.046Z,94
2022-11-27T07:15:55.104Z,94
2022-11-27T07:16:58.749Z,94
2022-11-27T07:18:01.598Z,93.9
2022-11-27T07:19:04.597Z,93.7
2022-11-27T07:20:07.576Z,93.7
2022-11-27T07:21:09.999Z,93.6
2022-11-27T07:22:12.569Z,93.6
2022-11-27T07:23:15.096Z,93.6
2022-11-27T07:24:18.155Z,93.6
2022-11-27T07:25:20.735Z,93.6
2022-11-27T07:26:24.146Z,93.5
2022-11-27T07:27:27.347Z,93.4
2022-11-27T07:28:30.519Z,93.3
2022-11-27T07:29:33.900Z,93.2
2022-11-27T07:30:36.459Z,93.2
2022-11-27T07:31:40.199Z,93.1
2022-11-27T07:32:43.054Z,93.1
2022-11-27T07:33:45.475Z,92.9
2022-11-27T07:34:48.533Z,92.9
2022-11-27T07:35:51.397Z,92.9
2022-11-27T07:36:54.240Z,92.8
2022-11-27T07:37:57.163Z,92.8
2022-11-27T07:38:59.952Z,92.8
2022-11-27T07:40:04.635Z,92.8
2022-11-27T07:41:07.616Z,92.8
2022-11-27T07:42:40.209Z,92.8
2022-11-27T07:43:44.292Z,92.7
2022-11-27T07:44:47.940Z,92.7
2022-11-27T07:45:51.381Z,92.7
2022-11-27T07:46:54.950Z,92.6
2022-11-27T07:47:58.310Z,92.6
2022-11-27T07:49:01.625Z,92.6
2022-11-27T07:50:04.401Z,92.6
2022-11-27T07:51:07.477Z,92.5
2022-11-27T07:52:10.807Z,92.4
2022-11-27T07:53:13.229Z,92.3
2022-11-27T07:54:15.459Z,92.2
2022-11-27T07:55:18.528Z,92.3
2022-11-27T07:56:22.237Z,92.3
2022-11-27T07:57:25.614Z,92.4
2022-11-27T07:58:29.071Z,92.6
2022-11-27T07:59:32.925Z,92.6
2022-11-27T08:00:37.041Z,92.6
2022-11-27T08:01:40.043Z,92.6
2022-11-27T08:02:43.027Z,92.7
2022-11-27T08:03:45.551Z,92.7
2022-11-27T08:04:49.247Z,92.9
2022-11-27T08:05:51.634Z,93.1
2022-11-27T08:06:55.046Z,93.1
2022-11-27T08:07:58.492Z,93.1
2022-11-27T08:09:02.118Z,93.2
2022-11-27T08:10:04.664Z,93.4
2022-11-27T08:11:07.508Z,93.4
2022-11-27T08:12:10.091Z,93.5
2022-11-27T08:13:12.917Z,93.5
2022-11-27T08:14:16.103Z,93.6
2022-11-27T08:15:19.954Z,93.6
2022-11-27T08:16:23.709Z,93.5
2022-11-27T08:17:27.608Z,93.5
2022-11-27T08:18:30.744Z,93.3
2022-11-27T08:19:33.534Z,93.2
2022-11-27T08:20:35.751Z,93.2
2022-11-27T08:21:38.444Z,93.3
2022-11-27T08:22:41.061Z,93.4
2022-11-27T08:23:43.823Z,93.4
2022-11-27T08:24:46.651Z,93.4
2022-11-27T08:25:49.421Z,93.3
2022-11-27T08:26:51.637Z,93.2
2022-11-27T08:27:54.445Z,93.3
2022-11-27T08:28:57.853Z,93.3
2022-11-27T08:30:00.738Z,93.2
2022-11-27T08:31:04.618Z,93.2
2022-11-27T08:32:08.161Z,92.9
2022-11-27T08:33:11.431Z,92.7
2022-11-27T08:34:14.577Z,92.7
2022-11-27T08:35:16.937Z,92.6
2022-11-27T08:36:20.705Z,92.6
2022-11-27T08:37:24.154Z,92.6
2022-11-27T08:38:27.309Z,92.8
2022-11-27T08:39:30.191Z,93
2022-11-27T08:40:33.798Z,93.2
2022-11-27T08:41:37.227Z,93.3
2022-11-27T08:42:40.631Z,93.4
2022-11-27T08:43:43.679Z,93.3
2022-11-27T08:44:46.723Z,93.4
2022-11-27T08:45:50.099Z,93.5
2022-11-27T08:46:54.320Z,93.5
2022-11-27T08:47:57.652Z,93.5
2022-11-27T08:49:00.723Z,93.6
2022-11-27T08:50:03.639Z,93.7
2022-11-27T08:51:06.417Z,93.7
2022-11-27T08:52:09.348Z,93.7
2022-11-27T08:53:12.469Z,93.7
2022-11-27T08:54:15.166Z,93.6
2022-11-27T08:55:18.315Z,93.7
2022-11-27T08:56:20.802Z,93.7
2022-11-27T08:57:23.861Z,93.8
2022-11-27T08:58:27.186Z,93.8
2022-11-27T08:59:29.613Z,93.8
2022-11-27T09:00:31.748Z,93.9
2022-11-27T09:01:35.394Z,94.1
2022-11-27T09:02:39.429Z,94.1
2022-11-27T09:03:42.996Z,94
2022-11-27T09:04:46.213Z,94
2022-11-27T09:05:49.717Z,94
2022-11-27T09:06:59.921Z,94
2022-11-27T09:08:02.961Z,93.9
2022-11-27T09:09:06.387Z,93.9
2022-11-27T09:10:09.436Z,93.9
2022-11-27T09:11:13.228Z,93.8
2022-11-27T09:12:16.203Z,93.7
2022-11-27T09:13:18.996Z,93.6
2022-11-27T09:14:21.500Z,93.5
2022-11-27T09:15:25.108Z,93.5
2022-11-27T09:16:28.464Z,93.4
2022-11-27T09:17:32.235Z,93.4
2022-11-27T09:18:36.056Z,93.4
2022-11-27T09:19:39.988Z,93.5
2022-11-27T09:20:43.027Z,93.6
2022-11-27T09:21:46.319Z,93.6
2022-11-27T09:22:49.110Z,93.6
2022-11-27T09:23:52.092Z,93.7
2022-11-27T09:24:55.421Z,93.7
2022-11-27T09:25:59.114Z,93.7
2022-11-27T09:27:01.658Z,93.6
2022-11-27T09:28:05.095Z,93.6
2022-11-27T09:29:07.599Z,93.6
2022-11-27T09:30:10.664Z,93.5
2022-11-27T09:31:13.249Z,93.5
2022-11-27T09:32:16.521Z,93.4
2022-11-27T09:33:20.054Z,93.5
2022-11-27T09:34:24.184Z,93.5
2022-11-27T09:35:28.201Z,93.4
2022-11-27T09:36:31.048Z,93.4
2022-11-27T09:37:34.542Z,93.4
2022-11-27T09:38:37.231Z,93.3
2022-11-27T09:39:39.642Z,93.3
2022-11-27T09:40:42.341Z,93.1
2022-11-27T09:41:45.832Z,93.1
2022-11-27T09:42:48.714Z,93
2022-11-27T09:43:51.869Z,93
2022-11-27T09:44:54.630Z,93
2022-11-27T09:45:58.139Z,93.1
2022-11-27T09:47:01.233Z,93.1
2022-11-27T09:48:04.281Z,92.9
2022-11-27T09:49:07.096Z,92.8
2022-11-27T09:50:11.239Z,92.8
2022-11-27T09:51:14.520Z,92.8
2022-11-27T09:52:17.293Z,92.8
2022-11-27T09:53:20.729Z,92.8
2022-11-27T09:54:23.704Z,92.8
2022-11-27T09:55:26.498Z,92.6
2022-11-27T09:56:29.485Z,92.6
2022-11-27T09:57:32.603Z,92.7
2022-11-27T09:58:35.316Z,92.9
2022-11-27T09:59:38.364Z,92.9
2022-11-27T10:00:41.802Z,93
2022-11-27T10:01:52.363Z,93.1
2022-11-27T10:02:56.634Z,93.2
2022-11-27T10:03:59.764Z,93.3
2022-11-27T10:05:20.404Z,93.3
2022-11-27T10:06:26.465Z,93.3
2022-11-27T10:07:30.424Z,93.2
2022-11-27T10:08:33.521Z,93.2
2022-11-27T10:09:36.676Z,93.2
2022-11-27T10:10:39.443Z,93.2
2022-11-27T10:11:42.504Z,93.2
2022-11-27T10:12:46.133Z,93.3
2022-11-27T10:13:49.039Z,93.2
2022-11-27T10:14:52.457Z,93.1
2022-11-27T10:15:55.536Z,93.1
2022-11-27T10:16:58.083Z,93.1
2022-11-27T10:18:02.265Z,93.1
2022-11-27T10:19:04.752Z,93.1
2022-11-27T10:20:07.937Z,93.1
2022-11-27T10:21:11.258Z,93.1
